sensor_id;sensor_type;location;lat;lon;timestamp;pressure;altitude;pressure_sealevel;temperature;humidity
85186;BME280;75557;51.048;-0.424;2024-01-25T00:00:20;102519.47;;;15.43;20.50
85186;BME280;75557;51.048;-0.424;2024-01-25T00:02:45;102515.36;;;15.66;20.52
85186;BME280;75557;51.048;-0.424;2024-01-25T00:05:11;102516.18;;;16.09;20.42
85186;BME280;75557;51.048;-0.424;2024-01-25T00:07:45;102512.09;;;16.11;20.46
85186;BME280;75557;51.048;-0.424;2024-01-25T00:10:02;102508.82;;;16.20;20.40
85186;BME280;75557;51.048;-0.424;2024-01-25T00:12:27;102503.92;;;15.98;20.37
85186;BME280;75557;51.048;-0.424;2024-01-25T00:14:53;102500.19;;;15.56;20.75
85186;BME280;75557;51.048;-0.424;2024-01-25T00:17:19;102499.91;;;15.76;20.66
85186;BME280;75557;51.048;-0.424;2024-01-25T00:19:44;102502.37;;;15.99;20.43
85186;BME280;75557;51.048;-0.424;2024-01-25T00:22:10;102503.71;;;16.01;20.40
85186;BME280;75557;51.048;-0.424;2024-01-25T00:24:35;102503.88;;;15.68;20.61
85186;BME280;75557;51.048;-0.424;2024-01-25T00:27:01;102507.50;;;15.57;20.54
85186;BME280;75557;51.048;-0.424;2024-01-25T00:29:26;102508.75;;;15.89;20.50
85186;BME280;75557;51.048;-0.424;2024-01-25T00:31:52;102510.04;;;16.23;20.31
85186;BME280;75557;51.048;-0.424;2024-01-25T00:34:18;102507.74;;;16.08;20.21
85186;BME280;75557;51.048;-0.424;2024-01-25T00:36:43;102503.79;;;16.17;20.10
85186;BME280;75557;51.048;-0.424;2024-01-25T00:39:09;102500.10;;;16.50;20.02
85186;BME280;75557;51.048;-0.424;2024-01-25T00:41:34;102492.91;;;16.15;19.99
85186;BME280;75557;51.048;-0.424;2024-01-25T00:44:00;102484.67;;;16.57;19.93
85186;BME280;75557;51.048;-0.424;2024-01-25T00:46:26;102482.74;;;16.08;19.98
85186;BME280;75557;51.048;-0.424;2024-01-25T00:48:51;102486.59;;;16.13;19.91
85186;BME280;75557;51.048;-0.424;2024-01-25T00:51:20;102487.87;;;16.03;20.07
85186;BME280;75557;51.048;-0.424;2024-01-25T00:53:42;102488.52;;;16.50;19.87
85186;BME280;75557;51.048;-0.424;2024-01-25T00:56:09;102487.58;;;15.80;20.17
85186;BME280;75557;51.048;-0.424;2024-01-25T00:58:33;102485.33;;;15.89;20.16
85186;BME280;75557;51.048;-0.424;2024-01-25T01:00:59;102483.94;;;16.50;19.88
85186;BME280;75557;51.048;-0.424;2024-01-25T01:03:25;102480.53;;;16.23;20.03
85186;BME280;75557;51.048;-0.424;2024-01-25T01:05:50;102479.84;;;16.47;19.95
85186;BME280;75557;51.048;-0.424;2024-01-25T01:08:16;102472.51;;;16.57;19.87
85186;BME280;75557;51.048;-0.424;2024-01-25T01:10:41;102473.71;;;16.40;19.86
85186;BME280;75557;51.048;-0.424;2024-01-25T01:13:06;102476.94;;;16.73;19.64
85186;BME280;75557;51.048;-0.424;2024-01-25T01:15:32;102481.24;;;16.60;19.86
85186;BME280;75557;51.048;-0.424;2024-01-25T01:17:57;102480.77;;;16.34;19.94
85186;BME280;75557;51.048;-0.424;2024-01-25T01:20:23;102472.07;;;16.36;19.81
85186;BME280;75557;51.048;-0.424;2024-01-25T01:22:48;102473.20;;;16.09;20.08
85186;BME280;75557;51.048;-0.424;2024-01-25T01:25:14;102467.08;;;15.91;20.14
85186;BME280;75557;51.048;-0.424;2024-01-25T01:27:40;102465.13;;;16.04;20.10
85186;BME280;75557;51.048;-0.424;2024-01-25T01:30:06;102463.60;;;15.82;20.26
85186;BME280;75557;51.048;-0.424;2024-01-25T01:32:31;102463.28;;;15.99;20.08
85186;BME280;75557;51.048;-0.424;2024-01-25T01:34:56;102463.34;;;16.26;19.98
85186;BME280;75557;51.048;-0.424;2024-01-25T01:37:22;102459.42;;;15.02;20.58
85186;BME280;75557;51.048;-0.424;2024-01-25T01:39:47;102455.50;;;15.86;20.17
85186;BME280;75557;51.048;-0.424;2024-01-25T01:42:13;102447.63;;;16.18;19.89
85186;BME280;75557;51.048;-0.424;2024-01-25T01:44:39;102444.22;;;15.62;20.25
85186;BME280;75557;51.048;-0.424;2024-01-25T01:47:04;102439.00;;;15.49;20.34
85186;BME280;75557;51.048;-0.424;2024-01-25T01:49:30;102439.87;;;15.87;20.05
85186;BME280;75557;51.048;-0.424;2024-01-25T01:51:55;102439.47;;;15.81;19.98
85186;BME280;75557;51.048;-0.424;2024-01-25T01:54:21;102441.59;;;16.19;19.81
85186;BME280;75557;51.048;-0.424;2024-01-25T01:56:46;102436.83;;;16.02;19.88
85186;BME280;75557;51.048;-0.424;2024-01-25T01:59:12;102437.03;;;16.16;19.87
85186;BME280;75557;51.048;-0.424;2024-01-25T02:01:38;102435.36;;;16.17;19.82
85186;BME280;75557;51.048;-0.424;2024-01-25T02:04:03;102437.88;;;15.98;19.77
85186;BME280;75557;51.048;-0.424;2024-01-25T02:06:28;102440.82;;;15.98;19.80
85186;BME280;75557;51.048;-0.424;2024-01-25T02:08:54;102439.46;;;16.10;19.81
85186;BME280;75557;51.048;-0.424;2024-01-25T02:11:20;102435.48;;;16.23;19.71
85186;BME280;75557;51.048;-0.424;2024-01-25T02:13:45;102434.11;;;16.13;19.84
85186;BME280;75557;51.048;-0.424;2024-01-25T02:16:11;102427.05;;;16.25;19.71
85186;BME280;75557;51.048;-0.424;2024-01-25T02:18:36;102422.09;;;16.31;19.55
85186;BME280;75557;51.048;-0.424;2024-01-25T02:21:02;102412.41;;;16.76;19.31
85186;BME280;75557;51.048;-0.424;2024-01-25T02:23:27;102406.09;;;16.61;19.56
85186;BME280;75557;51.048;-0.424;2024-01-25T02:25:53;102401.05;;;16.44;19.50
85186;BME280;75557;51.048;-0.424;2024-01-25T02:28:18;102402.48;;;16.28;19.59
85186;BME280;75557;51.048;-0.424;2024-01-25T02:30:44;102400.21;;;16.29;19.60
85186;BME280;75557;51.048;-0.424;2024-01-25T02:33:10;102400.67;;;16.64;19.42
85186;BME280;75557;51.048;-0.424;2024-01-25T02:35:35;102395.99;;;16.29;19.43
85186;BME280;75557;51.048;-0.424;2024-01-25T02:38:01;102400.97;;;16.83;19.45
85186;BME280;75557;51.048;-0.424;2024-01-25T02:40:26;102399.62;;;16.19;19.63
85186;BME280;75557;51.048;-0.424;2024-01-25T02:42:52;102400.64;;;16.07;19.69
85186;BME280;75557;51.048;-0.424;2024-01-25T02:45:17;102398.60;;;16.06;19.68
85186;BME280;75557;51.048;-0.424;2024-01-25T02:47:43;102397.65;;;16.13;19.65
85186;BME280;75557;51.048;-0.424;2024-01-25T02:50:09;102387.20;;;15.84;19.78
85186;BME280;75557;51.048;-0.424;2024-01-25T02:52:34;102390.31;;;16.04;19.67
85186;BME280;75557;51.048;-0.424;2024-01-25T02:54:59;102380.31;;;16.28;19.66
85186;BME280;75557;51.048;-0.424;2024-01-25T02:57:25;102370.63;;;15.70;19.95
85186;BME280;75557;51.048;-0.424;2024-01-25T02:59:51;102367.91;;;15.70;19.93
85186;BME280;75557;51.048;-0.424;2024-01-25T03:02:17;102365.04;;;15.59;19.97
85186;BME280;75557;51.048;-0.424;2024-01-25T03:04:41;102362.39;;;15.53;19.93
85186;BME280;75557;51.048;-0.424;2024-01-25T03:07:07;102360.52;;;15.80;19.82
85186;BME280;75557;51.048;-0.424;2024-01-25T03:09:32;102372.31;;;15.76;19.84
85186;BME280;75557;51.048;-0.424;2024-01-25T03:11:58;102379.68;;;15.54;19.92
85186;BME280;75557;51.048;-0.424;2024-01-25T03:14:24;102385.81;;;15.82;19.78
85186;BME280;75557;51.048;-0.424;2024-01-25T03:16:49;102393.29;;;15.87;19.74
85186;BME280;75557;51.048;-0.424;2024-01-25T03:19:15;102385.87;;;16.09;19.57
85186;BME280;75557;51.048;-0.424;2024-01-25T03:21:40;102379.43;;;16.25;19.46
85186;BME280;75557;51.048;-0.424;2024-01-25T03:24:06;102376.12;;;16.36;19.48
85186;BME280;75557;51.048;-0.424;2024-01-25T03:26:35;102369.73;;;16.15;19.66
85186;BME280;75557;51.048;-0.424;2024-01-25T03:28:57;102363.44;;;16.03;19.80
85186;BME280;75557;51.048;-0.424;2024-01-25T03:31:23;102360.57;;;15.67;19.95
85186;BME280;75557;51.048;-0.424;2024-01-25T03:33:48;102353.11;;;15.58;20.02
85186;BME280;75557;51.048;-0.424;2024-01-25T03:36:14;102334.55;;;15.77;19.90
85186;BME280;75557;51.048;-0.424;2024-01-25T03:38:39;102340.14;;;15.53;20.06
85186;BME280;75557;51.048;-0.424;2024-01-25T03:41:05;102330.17;;;15.80;19.93
85186;BME280;75557;51.048;-0.424;2024-01-25T03:43:30;102320.20;;;15.55;20.06
85186;BME280;75557;51.048;-0.424;2024-01-25T03:45:56;102324.63;;;15.66;20.05
85186;BME280;75557;51.048;-0.424;2024-01-25T03:48:21;102333.74;;;15.81;19.97
85186;BME280;75557;51.048;-0.424;2024-01-25T03:50:47;102332.74;;;15.77;19.96
85186;BME280;75557;51.048;-0.424;2024-01-25T03:53:12;102328.26;;;16.01;19.80
85186;BME280;75557;51.048;-0.424;2024-01-25T03:55:38;102327.35;;;15.86;19.89
85186;BME280;75557;51.048;-0.424;2024-01-25T03:58:04;102320.18;;;15.73;19.98
85186;BME280;75557;51.048;-0.424;2024-01-25T04:00:29;102310.94;;;15.65;19.96
85186;BME280;75557;51.048;-0.424;2024-01-25T04:02:55;102304.35;;;15.79;19.93
85186;BME280;75557;51.048;-0.424;2024-01-25T04:05:20;102310.21;;;15.77;19.95
85186;BME280;75557;51.048;-0.424;2024-01-25T04:07:46;102311.64;;;15.73;19.92
85186;BME280;75557;51.048;-0.424;2024-01-25T04:10:11;102318.70;;;15.75;19.95
85186;BME280;75557;51.048;-0.424;2024-01-25T04:12:37;102318.63;;;15.72;19.96
85186;BME280;75557;51.048;-0.424;2024-01-25T04:15:03;102321.69;;;15.62;19.88
85186;BME280;75557;51.048;-0.424;2024-01-25T04:17:28;102324.16;;;15.84;19.83
85186;BME280;75557;51.048;-0.424;2024-01-25T04:19:54;102318.48;;;15.93;19.81
85186;BME280;75557;51.048;-0.424;2024-01-25T04:22:19;102314.05;;;15.90;19.77
85186;BME280;75557;51.048;-0.424;2024-01-25T04:24:44;102311.92;;;16.04;19.70
85186;BME280;75557;51.048;-0.424;2024-01-25T04:27:10;102306.36;;;15.83;19.77
85186;BME280;75557;51.048;-0.424;2024-01-25T04:29:38;102301.07;;;15.73;19.99
85186;BME280;75557;51.048;-0.424;2024-01-25T04:32:01;102296.17;;;15.74;19.83
85186;BME280;75557;51.048;-0.424;2024-01-25T04:34:27;102296.84;;;15.82;19.83
85186;BME280;75557;51.048;-0.424;2024-01-25T04:36:53;102293.40;;;16.12;19.61
85186;BME280;75557;51.048;-0.424;2024-01-25T04:39:18;102298.97;;;16.03;19.66
85186;BME280;75557;51.048;-0.424;2024-01-25T04:41:43;102296.22;;;15.95;19.62
85186;BME280;75557;51.048;-0.424;2024-01-25T04:44:09;102292.14;;;16.06;19.55
85186;BME280;75557;51.048;-0.424;2024-01-25T04:46:35;102295.38;;;15.92;19.63
85186;BME280;75557;51.048;-0.424;2024-01-25T04:49:00;102295.32;;;15.98;19.63
85186;BME280;75557;51.048;-0.424;2024-01-25T04:51:26;102293.21;;;15.85;19.65
85186;BME280;75557;51.048;-0.424;2024-01-25T04:53:51;102287.27;;;16.16;19.54
85186;BME280;75557;51.048;-0.424;2024-01-25T04:56:17;102283.63;;;16.35;19.44
85186;BME280;75557;51.048;-0.424;2024-01-25T04:58:42;102281.55;;;16.34;19.50
85186;BME280;75557;51.048;-0.424;2024-01-25T05:01:08;102274.98;;;16.23;19.46
85186;BME280;75557;51.048;-0.424;2024-01-25T05:03:34;102273.23;;;16.37;19.56
85186;BME280;75557;51.048;-0.424;2024-01-25T05:05:59;102269.90;;;15.69;20.07
85186;BME280;75557;51.048;-0.424;2024-01-25T05:08:24;102269.44;;;15.47;20.27
85186;BME280;75557;51.048;-0.424;2024-01-25T05:10:50;102270.98;;;15.82;20.12
85186;BME280;75557;51.048;-0.424;2024-01-25T05:13:15;102276.29;;;15.67;20.21
85186;BME280;75557;51.048;-0.424;2024-01-25T05:15:41;102270.86;;;15.46;20.36
85186;BME280;75557;51.048;-0.424;2024-01-25T05:18:07;102266.48;;;15.56;20.33
85186;BME280;75557;51.048;-0.424;2024-01-25T05:20:32;102262.72;;;15.66;20.30
85186;BME280;75557;51.048;-0.424;2024-01-25T05:22:58;102256.08;;;15.69;20.25
85186;BME280;75557;51.048;-0.424;2024-01-25T05:25:23;102254.12;;;15.71;20.29
85186;BME280;75557;51.048;-0.424;2024-01-25T05:27:49;102260.33;;;15.90;20.16
85186;BME280;75557;51.048;-0.424;2024-01-25T05:30:14;102264.75;;;16.09;20.06
85186;BME280;75557;51.048;-0.424;2024-01-25T05:32:40;102268.52;;;15.55;20.31
85186;BME280;75557;51.048;-0.424;2024-01-25T05:35:07;102267.49;;;15.80;20.12
85186;BME280;75557;51.048;-0.424;2024-01-25T05:37:31;102262.33;;;15.43;20.35
85186;BME280;75557;51.048;-0.424;2024-01-25T05:39:57;102260.36;;;15.67;20.27
85186;BME280;75557;51.048;-0.424;2024-01-25T05:42:22;102258.69;;;15.87;20.10
85186;BME280;75557;51.048;-0.424;2024-01-25T05:44:48;102256.77;;;15.93;20.04
85186;BME280;75557;51.048;-0.424;2024-01-25T05:47:13;102260.11;;;15.88;20.09
85186;BME280;75557;51.048;-0.424;2024-01-25T05:49:40;102258.46;;;16.00;20.05
85186;BME280;75557;51.048;-0.424;2024-01-25T05:52:05;102255.50;;;16.17;19.94
85186;BME280;75557;51.048;-0.424;2024-01-25T05:54:30;102256.50;;;16.08;20.06
85186;BME280;75557;51.048;-0.424;2024-01-25T05:56:56;102256.65;;;16.23;19.89
85186;BME280;75557;51.048;-0.424;2024-01-25T05:59:21;102259.63;;;15.87;20.12
85186;BME280;75557;51.048;-0.424;2024-01-25T06:01:47;102254.15;;;16.18;19.83
85186;BME280;75557;51.048;-0.424;2024-01-25T06:04:12;102254.36;;;16.15;19.89
85186;BME280;75557;51.048;-0.424;2024-01-25T06:06:38;102246.40;;;15.89;19.99
85186;BME280;75557;51.048;-0.424;2024-01-25T06:09:04;102236.49;;;15.66;20.30
85186;BME280;75557;51.048;-0.424;2024-01-25T06:11:29;102231.27;;;16.16;19.89
85186;BME280;75557;51.048;-0.424;2024-01-25T06:13:55;102231.00;;;16.15;20.02
85186;BME280;75557;51.048;-0.424;2024-01-25T06:16:20;102233.60;;;15.51;20.34
85186;BME280;75557;51.048;-0.424;2024-01-25T06:18:46;102229.05;;;15.82;20.07
85186;BME280;75557;51.048;-0.424;2024-01-25T06:21:11;102234.64;;;15.72;20.23
85186;BME280;75557;51.048;-0.424;2024-01-25T06:23:37;102238.17;;;15.80;20.09
85186;BME280;75557;51.048;-0.424;2024-01-25T06:26:03;102232.84;;;16.13;20.11
85186;BME280;75557;51.048;-0.424;2024-01-25T06:28:28;102233.02;;;15.74;20.09
85186;BME280;75557;51.048;-0.424;2024-01-25T06:30:54;102233.19;;;15.62;20.25
85186;BME280;75557;51.048;-0.424;2024-01-25T06:33:19;102234.15;;;15.63;20.19
85186;BME280;75557;51.048;-0.424;2024-01-25T06:35:45;102226.77;;;15.69;20.17
85186;BME280;75557;51.048;-0.424;2024-01-25T06:38:10;102217.70;;;15.86;20.01
85186;BME280;75557;51.048;-0.424;2024-01-25T06:40:36;102217.60;;;16.07;19.87
85186;BME280;75557;51.048;-0.424;2024-01-25T06:43:01;102222.22;;;15.83;20.00
85186;BME280;75557;51.048;-0.424;2024-01-25T06:45:27;102219.94;;;15.94;19.95
85186;BME280;75557;51.048;-0.424;2024-01-25T06:47:53;102211.97;;;16.18;20.00
85186;BME280;75557;51.048;-0.424;2024-01-25T06:50:18;102211.41;;;15.65;20.08
85186;BME280;75557;51.048;-0.424;2024-01-25T06:52:43;102210.26;;;16.00;19.84
85186;BME280;75557;51.048;-0.424;2024-01-25T06:55:09;102206.60;;;15.87;20.01
85186;BME280;75557;51.048;-0.424;2024-01-25T06:57:35;102200.64;;;16.07;19.89
85186;BME280;75557;51.048;-0.424;2024-01-25T07:00:00;102199.34;;;15.93;19.91
85186;BME280;75557;51.048;-0.424;2024-01-25T07:02:26;102196.54;;;16.66;19.52
85186;BME280;75557;51.048;-0.424;2024-01-25T07:04:51;102195.85;;;16.51;19.63
85186;BME280;75557;51.048;-0.424;2024-01-25T07:07:17;102202.47;;;16.97;19.31
85186;BME280;75557;51.048;-0.424;2024-01-25T07:09:42;102204.44;;;17.33;19.26
85186;BME280;75557;51.048;-0.424;2024-01-25T07:12:08;102206.03;;;16.31;19.73
85186;BME280;75557;51.048;-0.424;2024-01-25T07:14:34;102210.47;;;17.02;19.57
85186;BME280;75557;51.048;-0.424;2024-01-25T07:16:59;102209.56;;;16.55;19.92
85186;BME280;75557;51.048;-0.424;2024-01-25T07:19:25;102213.33;;;16.17;20.26
85186;BME280;75557;51.048;-0.424;2024-01-25T07:21:50;102212.99;;;16.49;20.21
85186;BME280;75557;51.048;-0.424;2024-01-25T07:24:16;102209.46;;;16.42;20.17
85186;BME280;75557;51.048;-0.424;2024-01-25T07:26:42;102206.84;;;16.16;20.61
85186;BME280;75557;51.048;-0.424;2024-01-25T07:29:07;102202.56;;;15.65;20.89
85186;BME280;75557;51.048;-0.424;2024-01-25T07:31:33;102195.19;;;16.07;20.77
85186;BME280;75557;51.048;-0.424;2024-01-25T07:33:58;102196.36;;;16.54;20.65
85186;BME280;75557;51.048;-0.424;2024-01-25T07:36:24;102195.29;;;16.74;20.31
85186;BME280;75557;51.048;-0.424;2024-01-25T07:38:49;102198.56;;;16.35;20.58
85186;BME280;75557;51.048;-0.424;2024-01-25T07:41:15;102197.80;;;16.73;20.32
85186;BME280;75557;51.048;-0.424;2024-01-25T07:43:41;102204.45;;;16.54;20.44
85186;BME280;75557;51.048;-0.424;2024-01-25T07:46:06;102203.11;;;15.80;20.93
85186;BME280;75557;51.048;-0.424;2024-01-25T07:48:32;102202.83;;;16.41;20.55
85186;BME280;75557;51.048;-0.424;2024-01-25T07:50:57;102201.96;;;16.32;20.36
85186;BME280;75557;51.048;-0.424;2024-01-25T07:53:23;102199.22;;;16.13;20.74
85186;BME280;75557;51.048;-0.424;2024-01-25T07:55:48;102202.02;;;15.81;20.97
85186;BME280;75557;51.048;-0.424;2024-01-25T07:58:14;102195.52;;;15.46;21.09
85186;BME280;75557;51.048;-0.424;2024-01-25T08:00:39;102195.54;;;15.77;20.66
85186;BME280;75557;51.048;-0.424;2024-01-25T08:03:05;102178.02;;;15.74;20.56
85186;BME280;75557;51.048;-0.424;2024-01-25T08:05:30;102163.58;;;15.82;20.57
85186;BME280;75557;51.048;-0.424;2024-01-25T08:07:56;102152.40;;;15.83;20.84
85186;BME280;75557;51.048;-0.424;2024-01-25T08:10:22;102154.61;;;15.26;21.28
85186;BME280;75557;51.048;-0.424;2024-01-25T08:12:47;102152.26;;;14.84;21.58
85186;BME280;75557;51.048;-0.424;2024-01-25T08:15:13;102156.54;;;15.10;21.52
85186;BME280;75557;51.048;-0.424;2024-01-25T08:17:38;102157.75;;;15.09;21.49
85186;BME280;75557;51.048;-0.424;2024-01-25T08:20:05;102158.36;;;15.04;21.66
85186;BME280;75557;51.048;-0.424;2024-01-25T08:22:30;102157.40;;;15.35;21.77
85186;BME280;75557;51.048;-0.424;2024-01-25T08:24:56;102159.09;;;15.12;21.75
85186;BME280;75557;51.048;-0.424;2024-01-25T08:27:21;102150.31;;;14.79;21.84
85186;BME280;75557;51.048;-0.424;2024-01-25T08:29:46;102152.89;;;14.81;21.73
85186;BME280;75557;51.048;-0.424;2024-01-25T08:32:12;102155.67;;;14.63;21.94
85186;BME280;75557;51.048;-0.424;2024-01-25T08:34:37;102157.88;;;14.92;21.85
85186;BME280;75557;51.048;-0.424;2024-01-25T08:37:03;102172.67;;;14.89;22.05
85186;BME280;75557;51.048;-0.424;2024-01-25T08:39:28;102177.68;;;14.66;22.06
85186;BME280;75557;51.048;-0.424;2024-01-25T08:41:54;102177.53;;;14.83;21.75
85186;BME280;75557;51.048;-0.424;2024-01-25T08:44:20;102179.67;;;15.00;21.72
85186;BME280;75557;51.048;-0.424;2024-01-25T08:46:45;102179.71;;;15.12;21.73
85186;BME280;75557;51.048;-0.424;2024-01-25T08:49:10;102177.33;;;15.03;21.85
85186;BME280;75557;51.048;-0.424;2024-01-25T08:51:36;102177.76;;;15.09;22.12
85186;BME280;75557;51.048;-0.424;2024-01-25T08:54:02;102179.84;;;15.04;22.10
85186;BME280;75557;51.048;-0.424;2024-01-25T08:56:27;102177.54;;;14.95;21.95
85186;BME280;75557;51.048;-0.424;2024-01-25T08:58:54;102182.67;;;14.98;22.46
85186;BME280;75557;51.048;-0.424;2024-01-25T09:01:18;102175.87;;;15.21;22.12
85186;BME280;75557;51.048;-0.424;2024-01-25T09:03:44;102180.13;;;15.25;22.12
85186;BME280;75557;51.048;-0.424;2024-01-25T09:06:09;102184.49;;;15.38;22.15
85186;BME280;75557;51.048;-0.424;2024-01-25T09:08:35;102172.36;;;15.76;21.33
85186;BME280;75557;51.048;-0.424;2024-01-25T09:11:00;102171.61;;;15.33;21.78
85186;BME280;75557;51.048;-0.424;2024-01-25T09:13:26;102166.36;;;16.17;21.07
85186;BME280;75557;51.048;-0.424;2024-01-25T09:15:52;102164.48;;;16.29;20.96
85186;BME280;75557;51.048;-0.424;2024-01-25T09:18:17;102169.82;;;15.21;21.82
85186;BME280;75557;51.048;-0.424;2024-01-25T09:20:43;102167.39;;;16.32;20.76
85186;BME280;75557;51.048;-0.424;2024-01-25T09:23:08;102168.65;;;16.62;20.73
85186;BME280;75557;51.048;-0.424;2024-01-25T09:25:34;102160.53;;;15.96;21.02
85186;BME280;75557;51.048;-0.424;2024-01-25T09:28:01;102152.26;;;16.03;21.02
85186;BME280;75557;51.048;-0.424;2024-01-25T09:30:25;102147.02;;;16.21;20.90
85186;BME280;75557;51.048;-0.424;2024-01-25T09:32:50;102154.15;;;16.11;21.01
85186;BME280;75557;51.048;-0.424;2024-01-25T09:35:16;102154.24;;;15.20;21.63
85186;BME280;75557;51.048;-0.424;2024-01-25T09:37:42;102144.13;;;16.06;21.24
85186;BME280;75557;51.048;-0.424;2024-01-25T09:40:07;102138.31;;;16.33;21.03
85186;BME280;75557;51.048;-0.424;2024-01-25T09:42:33;102132.93;;;16.29;21.05
85186;BME280;75557;51.048;-0.424;2024-01-25T09:44:58;102128.11;;;16.00;21.22
85186;BME280;75557;51.048;-0.424;2024-01-25T09:47:24;102127.54;;;15.66;21.45
85186;BME280;75557;51.048;-0.424;2024-01-25T09:49:49;102126.60;;;16.18;21.17
85186;BME280;75557;51.048;-0.424;2024-01-25T09:52:16;102123.06;;;16.12;21.26
85186;BME280;75557;51.048;-0.424;2024-01-25T09:54:40;102124.09;;;16.41;21.07
85186;BME280;75557;51.048;-0.424;2024-01-25T09:57:12;102127.20;;;16.29;21.15
85186;BME280;75557;51.048;-0.424;2024-01-25T09:59:32;102131.57;;;16.20;21.26
85186;BME280;75557;51.048;-0.424;2024-01-25T10:01:57;102132.49;;;15.78;21.56
85186;BME280;75557;51.048;-0.424;2024-01-25T10:04:23;102133.65;;;15.76;21.54
85186;BME280;75557;51.048;-0.424;2024-01-25T10:06:48;102134.08;;;15.49;21.73
85186;BME280;75557;51.048;-0.424;2024-01-25T10:09:14;102132.59;;;15.86;21.54
85186;BME280;75557;51.048;-0.424;2024-01-25T10:11:39;102134.32;;;15.78;21.65
85186;BME280;75557;51.048;-0.424;2024-01-25T10:14:05;102133.72;;;15.59;21.69
85186;BME280;75557;51.048;-0.424;2024-01-25T10:16:31;102131.05;;;15.70;21.69
85186;BME280;75557;51.048;-0.424;2024-01-25T10:18:56;102132.87;;;15.60;21.70
85186;BME280;75557;51.048;-0.424;2024-01-25T10:21:23;102132.30;;;15.40;21.73
85186;BME280;75557;51.048;-0.424;2024-01-25T10:23:48;102132.47;;;15.40;22.08
85186;BME280;75557;51.048;-0.424;2024-01-25T10:26:13;102127.07;;;15.50;21.84
85186;BME280;75557;51.048;-0.424;2024-01-25T10:28:38;102122.33;;;15.73;21.82
85186;BME280;75557;51.048;-0.424;2024-01-25T10:31:04;102129.10;;;15.58;21.80
85186;BME280;75557;51.048;-0.424;2024-01-25T10:33:30;102130.84;;;15.58;21.80
85186;BME280;75557;51.048;-0.424;2024-01-25T10:35:55;102133.65;;;16.33;21.24
85186;BME280;75557;51.048;-0.424;2024-01-25T10:38:21;102134.16;;;15.59;21.74
85186;BME280;75557;51.048;-0.424;2024-01-25T10:40:46;102137.54;;;14.97;22.32
85186;BME280;75557;51.048;-0.424;2024-01-25T10:43:12;102131.01;;;15.31;22.02
85186;BME280;75557;51.048;-0.424;2024-01-25T10:45:37;102132.13;;;16.05;21.84
85186;BME280;75557;51.048;-0.424;2024-01-25T10:48:03;102132.87;;;16.46;21.23
85186;BME280;75557;51.048;-0.424;2024-01-25T10:50:28;102137.65;;;14.84;22.46
85186;BME280;75557;51.048;-0.424;2024-01-25T10:52:54;102135.21;;;14.73;22.60
85186;BME280;75557;51.048;-0.424;2024-01-25T10:55:20;102133.30;;;14.79;22.72
85186;BME280;75557;51.048;-0.424;2024-01-25T10:57:45;102134.98;;;14.48;22.86
85186;BME280;75557;51.048;-0.424;2024-01-25T11:00:12;102138.35;;;14.53;22.99
85186;BME280;75557;51.048;-0.424;2024-01-25T11:02:36;102137.78;;;14.57;22.86
85186;BME280;75557;51.048;-0.424;2024-01-25T11:05:07;102136.05;;;14.11;23.03
85186;BME280;75557;51.048;-0.424;2024-01-25T11:07:27;102131.99;;;14.51;22.66
85186;BME280;75557;51.048;-0.424;2024-01-25T11:09:53;102125.60;;;16.15;21.79
85186;BME280;75557;51.048;-0.424;2024-01-25T11:12:19;102122.58;;;16.35;21.20
85186;BME280;75557;51.048;-0.424;2024-01-25T11:14:44;102124.31;;;15.82;21.53
85186;BME280;75557;51.048;-0.424;2024-01-25T11:17:19;102125.00;;;16.18;21.38
85186;BME280;75557;51.048;-0.424;2024-01-25T11:19:35;102120.88;;;16.54;21.12
85186;BME280;75557;51.048;-0.424;2024-01-25T11:22:03;102122.85;;;16.53;21.19
85186;BME280;75557;51.048;-0.424;2024-01-25T11:24:26;102119.38;;;15.98;21.33
85186;BME280;75557;51.048;-0.424;2024-01-25T11:26:54;102115.42;;;16.50;20.98
85186;BME280;75557;51.048;-0.424;2024-01-25T11:29:19;102114.66;;;16.20;21.42
85186;BME280;75557;51.048;-0.424;2024-01-25T11:31:43;102109.67;;;16.48;21.09
85186;BME280;75557;51.048;-0.424;2024-01-25T11:34:10;102100.71;;;16.01;21.47
85186;BME280;75557;51.048;-0.424;2024-01-25T11:36:34;102093.38;;;16.38;21.07
85186;BME280;75557;51.048;-0.424;2024-01-25T11:39:00;102097.05;;;16.55;21.00
85186;BME280;75557;51.048;-0.424;2024-01-25T11:41:25;102105.77;;;16.75;20.80
85186;BME280;75557;51.048;-0.424;2024-01-25T11:43:51;102098.96;;;16.22;21.06
85186;BME280;75557;51.048;-0.424;2024-01-25T11:46:17;102091.81;;;16.31;21.13
85186;BME280;75557;51.048;-0.424;2024-01-25T11:48:42;102082.41;;;16.26;21.14
85186;BME280;75557;51.048;-0.424;2024-01-25T11:51:09;102078.24;;;15.97;21.22
85186;BME280;75557;51.048;-0.424;2024-01-25T11:53:33;102073.56;;;16.27;21.11
85186;BME280;75557;51.048;-0.424;2024-01-25T11:55:59;102064.86;;;16.22;21.19
85186;BME280;75557;51.048;-0.424;2024-01-25T11:58:24;102059.92;;;15.54;21.56
85186;BME280;75557;51.048;-0.424;2024-01-25T12:00:50;102059.16;;;15.98;21.23
85186;BME280;75557;51.048;-0.424;2024-01-25T12:03:15;102055.60;;;16.13;21.21
85186;BME280;75557;51.048;-0.424;2024-01-25T12:05:41;102054.90;;;15.92;21.40
85186;BME280;75557;51.048;-0.424;2024-01-25T12:08:08;102050.45;;;15.92;21.33
85186;BME280;75557;51.048;-0.424;2024-01-25T12:10:32;102049.86;;;16.31;21.24
85186;BME280;75557;51.048;-0.424;2024-01-25T12:12:58;102041.48;;;16.05;21.27
85186;BME280;75557;51.048;-0.424;2024-01-25T12:15:23;102038.11;;;16.64;20.98
85186;BME280;75557;51.048;-0.424;2024-01-25T12:17:49;102033.46;;;16.13;21.47
85186;BME280;75557;51.048;-0.424;2024-01-25T12:20:15;102028.82;;;15.72;21.80
85186;BME280;75557;51.048;-0.424;2024-01-25T12:22:40;102029.87;;;15.62;21.72
85186;BME280;75557;51.048;-0.424;2024-01-25T12:25:07;102030.40;;;15.77;21.89
85186;BME280;75557;51.048;-0.424;2024-01-25T12:27:31;102024.85;;;15.52;22.03
85186;BME280;75557;51.048;-0.424;2024-01-25T12:29:57;102025.47;;;16.01;21.91